Aplicació Alertes

Dades de l'estació automàtica Camarasa

?
?
Resum diari 22:30 TU
Dades diàries de l'estació meteorològica
Temperatura mitjana 2.5 °C
Temperatura màxima 8.0 °C 13:17 TU
Temperatura mínima -2.5 °C 7:20 TU
Humitat relativa mitjana 54%
Precipitació acumulada 0.0 mm
Ratxa màxima del vent (2 m) 15.8 km/h - 2º 1:03 TU
Irradiació solar global 9.2 MJ/m2

El tram horari està expressat en Temps Universal (TU). Cal sumar una hora en horari d'hivern i dues en horari d'estiu per passar a l'hora oficial.

Camarasa

Metadades estació meteorol´gica
Municipi Camarasa
Comarca Noguera
Altitud 668 m
Data alta 07.03.2006
Estat actual Operativa
Dades de període
Període
TU
TM
°C
TX
°C
TN
°C
HRM
%
PPT
mm
VVM (2 m)
km/h
DVM (2 m)
graus
VVX (2 m)
km/h
RS
W/m2
00:00 - 00:30 0.9 1.2 0.7 52 0.0 3.2 257 8.3 0
00:30 - 01:00 1.4 2.3 0.8 49 0.0 4.7 318 10.1 0
01:00 - 01:30 2.4 2.7 2.1 45 0.0 5.4 324 15.8 0
01:30 - 02:00 1.7 2.0 1.2 48 0.0 4.3 295 9.4 0
02:00 - 02:30 1.2 1.5 0.5 50 0.0 4.3 296 9.7 0
02:30 - 03:00 0.3 0.5 -0.1 53 0.0 4.3 280 7.6 0
03:00 - 03:30 0.4 0.7 0.0 52 0.0 2.9 282 6.8 0
03:30 - 04:00 0.2 0.6 -0.4 54 0.0 4.0 292 7.9 0
04:00 - 04:30 -0.6 -0.1 -1.1 58 0.0 4.3 286 8.3 0
04:30 - 05:00 -1.5 -1.1 -1.7 64 0.0 5.0 275 8.3 0
05:00 - 05:30 -1.3 -1.0 -1.7 63 0.0 5.4 273 9.4 0
05:30 - 06:00 -1.3 -1.1 -2.0 63 0.0 5.0 280 10.4 0
06:00 - 06:30 -1.7 -1.5 -2.0 69 0.0 4.0 206 8.6 0
06:30 - 07:00 -1.9 -1.8 -2.1 67 0.0 1.1 312 4.3 0
07:00 - 07:30 -2.2 -1.9 -2.5 73 0.0 5.4 231 11.9 5
07:30 - 08:00 -2.1 -1.5 -2.4 90 0.0 3.6 152 11.9 59
08:00 - 08:30 -0.9 -0.1 -1.4 87 0.0 2.9 173 7.6 116
08:30 - 09:00 -1.3 -0.7 -1.8 84 0.0 2.5 268 7.6 201
09:00 - 09:30 -0.2 0.2 -0.6 72 0.0 5.0 277 10.1 275
09:30 - 10:00 0.9 1.7 0.1 64 0.0 5.8 296 10.1 340
10:00 - 10:30 2.1 3.2 1.4 56 0.0 4.0 300 9.0 391
10:30 - 11:00 3.7 4.2 3.3 47 0.0 4.7 298 8.3 431
11:00 - 11:30 4.7 5.3 4.3 43 0.0 5.4 282 10.4 459
11:30 - 12:00 5.4 5.7 5.1 44 0.0 5.8 274 9.7 466
12:00 - 12:30 6.4 7.1 5.8 42 0.0 6.5 268 10.8 461
12:30 - 13:00 7.4 7.7 7.0 36 0.0 6.1 262 14.8 441
13:00 - 13:30 7.6 8.0 6.9 38 0.0 6.1 233 13.0 407
13:30 - 14:00 6.3 7.0 5.8 52 0.0 6.5 165 13.7 359
14:00 - 14:30 6.7 7.2 6.3 48 0.0 5.0 214 14.0 301
14:30 - 15:00 7.2 7.5 7.0 39 0.0 3.6 223 11.9 213
15:00 - 15:30 7.2 7.4 6.8 39 0.0 3.2 241 8.3 156
15:30 - 16:00 6.6 7.0 5.7 42 0.0 2.5 216 8.3 76
16:00 - 16:30 4.5 5.6 3.8 47 0.0 2.2 187 6.5 8
16:30 - 17:00 4.0 4.7 3.2 49 0.0 2.5 146 7.2 0
17:00 - 17:30 4.3 4.7 4.1 47 0.0 0.0 38 0.7 0
17:30 - 18:00 4.1 4.2 3.9 48 0.0 0.7 105 3.2 1
18:00 - 18:30 4.2 4.4 4.1 48 0.0 1.1 14 3.6 1
18:30 - 19:00 4.2 4.5 3.8 47 0.0 2.2 333 4.3 0
19:00 - 19:30 4.0 4.3 3.7 49 0.0 1.1 261 4.7 0
19:30 - 20:00 4.2 6.0 2.4 48 0.0 4.3 328 11.9 0
20:00 - 20:30 3.0 3.8 2.5 54 0.0 4.0 284 7.9 0
20:30 - 21:00 3.4 3.7 3.2 53 0.0 3.2 280 6.1 0
21:00 - 21:30 3.9 4.5 2.3 49 0.0 3.2 283 7.9 0
21:30 - 22:00 2.1 2.4 1.7 58 0.0 5.8 283 9.7 0
22:00 - 22:30 2.5 2.7 2.4 56 0.0 5.8 291 11.5 0
22:30 - 23:00 2.2 2.6 1.9 58 0.0 2.9 246 7.6 0

Les dades en taronja només han passat un control de qualitat automàtic. Resta pendent la seva validació definitiva.